Latest Weather Observations for Pearce

IDW60901

Issued at 5:31 pm WST Monday 20 May 2019 (issued every 10 minutes, with the page automatically refreshed every 10 minutes)

About weather observations | Map of Perth area stations | Latest observations for Perth area | Other Formats
Station Details ID: 009053 Name: PEARCE RAAF Lat: -31.67 Lon: 116.02 Height: 40.0 m
Data from the previous 72 hours. | See also: Recent months at Pearce
Date/Time
WST
Temp
°C
App
Temp
°C
Dew
Point
°C
Rel
Hum
%
Delta-T
°C
Wind Press
QNH
hPa
Press
MSL
hPa
Rain since
9am
mm
Dir  Spd
km/h
Gust
km/h
Spd
kts
Gust
kts
20/05:30pm 17.6 15.4 10.9 65 3.6 WSW 13 17 7 9 1019.2 1019.1 0.0
20/05:00pm 18.1 15.0 10.2 60 4.2 WSW 17 26 9 14 1018.9 1018.8 0.0
20/04:30pm 18.6 15.2 10.4 59 4.4 WSW 19 26 10 14 1018.6 1018.5 0.0
20/04:00pm 19.3 14.7 8.3 49 5.7 W 22 30 12 16 1018.4 1018.3 0.0
20/03:30pm 20.5 16.3 9.7 50 5.8 WSW 22 32 12 17 1018.0 1017.9 0.0
20/03:00pm 20.6 16.4 9.8 50 5.8 WSW 22 32 12 17 1017.7 1017.6 0.0
20/02:30pm 19.6 15.2 10.3 55 5.0 WSW 24 32 13 17 1017.5 1017.4 0.0
20/02:00pm 20.8 17.3 10.9 53 5.4 WSW 20 26 11 14 1017.2 1017.1 0.0
20/01:30pm 20.8 16.6 9.7 49 6.0 WSW 22 28 12 15 1017.2 1017.1 0.0
20/01:00pm 20.8 16.6 9.7 49 6.0 WSW 22 35 12 19 1017.2 1017.1 0.0
20/12:30pm 20.7 16.4 10.8 53 5.4 WSW 24 32 13 17 1017.2 1017.1 0.0
20/12:00pm 19.4 15.7 11.4 60 4.4 W 22 32 12 17 1017.5 1017.4 0.0
20/11:30am 19.3 16.0 11.6 61 4.2 WSW 20 28 11 15 1017.7 1017.6 0.0
20/11:00am 19.0 16.6 12.7 67 3.5 WSW 17 24 9 13 1017.8 1017.7 0.0
20/10:30am 18.7 16.7 14.0 74 2.7 W 17 20 9 11 1017.9 1017.8 0.0
20/10:00am 17.8 17.8 16.3 91 0.9 NW 11 17 6 9 1017.7 1017.6 0.0
20/09:30am 16.6 16.7 15.6 94 0.6 N 9 11 5 6 1017.3 1017.2 0.0
20/09:00am 16.0 15.5 15.0 94 0.6 NNW 11 13 6 7 1017.1 1017.0 9.2
20/08:30am 15.4 15.2 14.6 95 0.5 N 9 11 5 6 1016.7 1016.6 9.2
20/08:03am 15.0 14.6 14.2 95 0.5 N 9 13 5 7 1016.4 1016.3 9.2
20/08:00am 14.8 14.0 14.0 95 0.5 N 11 17 6 9 1016.5 1016.4 9.2
20/07:45am 14.3 13.6 13.3 94 0.6 NNE 9 11 5 6 1016.5 1016.4 9.2
20/07:30am 14.6 14.4 13.6 94 0.6 NNE 7 9 4 5 1016.0 1015.9 9.2
20/07:00am 14.1 13.0 13.1 94 0.6 NNE 11 13 6 7 1015.3 1015.2 9.2
20/06:57am 14.1 13.0 13.1 94 0.6 NNE 11 13 6 7 1015.3 1015.2 9.2
20/06:41am 14.1 12.6 13.1 94 0.6 N 13 15 7 8 1015.1 1015.0 9.2
20/06:30am 14.1 13.0 13.0 93 0.6 N 11 13 6 7 1015.0 1014.9 9.2
20/06:00am 14.0 12.4 12.7 92 0.7 N 13 17 7 9 1014.5 1014.5 8.6
20/05:30am 13.9 12.9 12.3 90 0.9 N 9 13 5 7 1014.2 1014.2 7.2
20/05:00am 15.0 11.6 11.4 79 1.9 NNW 20 26 11 14 1014.0 1014.0 1.8
20/04:30am 15.6 12.8 11.2 75 2.4 N 17 22 9 12 1013.1 1013.1 0.0
20/04:00am 15.7 12.1 10.5 71 2.8 N 20 28 11 15 1013.1 1013.1 0.0
20/03:30am 15.9 12.7 10.0 68 3.1 N 17 24 9 13 1013.4 1013.4 0.0
20/03:00am 15.9 12.5 9.3 65 3.4 N 17 22 9 12 1013.7 1013.7 0.0
20/02:30am 15.5 12.0 8.7 64 3.5 N 17 26 9 14 1013.7 1013.7 0.0
20/02:00am 13.9 11.2 8.9 72 2.5 N 13 17 7 9 1013.9 1013.9 0.0
20/01:30am 10.4 8.3 5.6 72 2.2 NW 6 7 3 4 1014.3 1014.3 0.0
20/01:00am 9.9 7.6 4.9 71 2.3 NE 6 9 3 5 1014.1 1014.1 0.0
20/12:30am 10.0 7.3 5.4 73 2.1 NNE 9 11 5 6 1014.0 1014.0 0.0
20/12:00am 8.6 6.1 4.0 73 2.0 NNE 6 9 3 5 1014.4 1014.4 0.0
 
Date/Time
WST
Temp
°C
App
Temp
°C
Dew
Point
°C
Rel
Hum
%
Delta-T
°C
Wind Press
QNH
hPa
Press
MSL
hPa
Rain since
9am
mm
Dir  Spd
km/h
Gust
km/h
Spd
kts
Gust
kts
19/11:30pm 8.4 7.0 3.5 71 2.1 CALM 0 0 0 0 1014.6 1014.6 0.0
19/11:00pm 9.7 7.3 4.3 69 2.4 NNE 6 9 3 5 1015.1 1015.0 0.0
19/10:30pm 8.2 5.4 2.9 69 2.2 NNE 7 11 4 6 1015.3 1015.2 0.0
19/10:00pm 9.3 6.8 3.5 67 2.5 NNE 6 7 3 4 1015.4 1015.3 0.0
19/09:30pm 10.3 7.6 2.9 60 3.2 ENE 6 7 3 4 1015.6 1015.5 0.0
19/09:00pm 9.8 7.8 2.4 60 3.1 ENE 2 7 1 4 1015.6 1015.5 0.0
19/08:30pm 11.9 9.2 2.9 54 3.9 NNE 6 9 3 5 1015.3 1015.2 0.0
19/08:00pm 10.4 7.3 1.5 54 3.7 NNE 7 7 4 4 1015.5 1015.4 0.0
19/07:30pm 13.8 10.8 2.1 45 5.1 NE 7 9 4 5 1015.3 1015.2 0.0
19/07:00pm 10.7 6.6 2.0 55 3.7 W 13 26 7 14 1015.5 1015.4 0.0
19/06:30pm 13.3 10.6 0.0 40 5.5 NW 4 9 2 5 1014.7 1014.7 0.0
19/06:00pm 17.0 13.2 -0.7 30 7.5 NE 9 13 5 7 1014.4 1014.4 0.0
19/05:30pm 18.8 15.0 -0.6 27 8.4 NE 9 13 5 7 1014.4 1014.4 0.0
19/05:00pm 20.0 16.1 -1.2 24 9.2 NE 9 13 5 7 1014.4 1014.4 0.0
19/04:30pm 20.9 16.4 -0.4 24 9.4 N 13 19 7 10 1014.8 1014.8 0.0
19/04:00pm 20.6 15.7 -0.7 24 9.3 N 15 24 8 13 1015.4 1015.3 0.0
19/03:30pm 20.8 16.3 -0.5 24 9.4 NNW 13 19 7 10 1015.9 1015.8 0.0
19/03:00pm 20.3 16.0 0.7 27 8.8 N 13 19 7 10 1015.8 1015.7 0.0
19/02:30pm 20.5 15.7 0.4 26 9.0 N 15 22 8 12 1016.4 1016.3 0.0
19/02:00pm 20.8 16.4 0.1 25 9.2 N 13 20 7 11 1016.6 1016.5 0.0
19/01:30pm 20.1 14.4 -0.5 25 9.0 NNW 19 24 10 13 1017.1 1017.0 0.0
19/01:00pm 19.6 14.9 0.6 28 8.5 N 15 22 8 12 1017.5 1017.4 0.0
19/12:30pm 19.1 14.0 0.7 29 8.2 N 17 28 9 15 1018.2 1018.1 0.0
19/12:00pm 18.5 13.5 1.5 32 7.6 NNE 17 24 9 13 1018.8 1018.7 0.0
19/11:30am 18.1 13.1 1.6 33 7.4 N 17 24 9 13 1019.6 1019.5 0.0
19/11:00am 16.8 11.6 2.4 38 6.5 NNE 19 26 10 14 1020.2 1020.1 0.0
19/10:30am 15.8 11.1 3.3 43 5.7 NNE 17 24 9 13 1020.5 1020.4 0.0
19/10:00am 14.5 9.4 3.0 46 5.1 NNE 19 26 10 14 1021.0 1020.9 0.0
19/09:30am 13.4 9.5 3.2 50 4.6 N 13 19 7 10 1021.0 1020.9 0.0
19/09:00am 11.7 7.9 3.7 58 3.5 N 13 17 7 9 1020.9 1020.8 0.0
19/08:30am 10.8 7.3 3.6 61 3.2 NNE 11 22 6 12 1020.9 1020.8 0.0
19/08:00am 8.7 6.0 3.5 70 2.2 N 7 9 4 5 1021.1 1021.0 0.0
19/07:30am 6.9 3.3 3.2 77 1.6 N 11 13 6 7 1021.2 1021.1 0.0
19/07:00am 6.3 3.6 2.4 76 1.6 NNW 6 11 3 6 1021.0 1020.9 0.0
19/06:30am 7.1 4.4 2.4 72 1.9 E 6 9 3 5 1020.9 1020.8 0.0
19/06:00am 7.3 4.4 2.8 73 1.9 E 7 13 4 7 1021.0 1020.9 0.0
19/05:30am 6.4 3.8 3.4 81 1.3 N 6 15 3 8 1021.0 1020.9 0.0
19/05:00am 6.0 3.0 2.1 76 1.6 ENE 7 11 4 6 1021.3 1021.2 0.0
19/04:30am 6.5 4.2 2.6 76 1.6 SE 4 9 2 5 1021.1 1021.0 0.0
19/04:00am 7.5 3.7 3.9 78 1.5 E 13 17 7 9 1021.3 1021.2 0.0
19/03:30am 7.6 4.9 3.8 77 1.6 E 7 13 4 7 1021.5 1021.4 0.0
19/03:00am 5.9 3.0 2.7 80 1.3 ENE 7 13 4 7 1021.6 1021.5 0.0
19/02:30am 5.6 2.8 3.3 85 1.0 ENE 7 11 4 6 1021.9 1021.8 0.0
19/02:00am 4.3 1.9 2.3 87 0.8 W 4 7 2 4 1022.5 1022.4 0.0
19/01:30am 3.4 0.5 1.4 87 0.8 W 6 9 3 5 1022.4 1022.3 0.0
19/01:00am 3.9 2.2 1.8 86 0.8 CALM 0 0 0 0 1022.4 1022.3 0.0
19/12:46am 2.7 -0.1 -0.4 80 1.1 E 4 7 2 4 1022.7 1022.6 0.0
19/12:30am 7.7 4.5 5.0 83 1.2 ENE 11 15 6 8 1022.5 1022.4 0.0
19/12:00am 5.8 3.2 3.0 82 1.2 E 6 11 3 6 1022.6 1022.5 0.0
 
Date/Time
WST
Temp
°C
App
Temp
°C
Dew
Point
°C
Rel
Hum
%
Delta-T
°C
Wind Press
QNH
hPa
Press
MSL
hPa
Rain since
9am
mm
Dir  Spd
km/h
Gust
km/h
Spd
kts
Gust
kts
18/11:30pm 5.7 3.6 3.9 88 0.8 E 4 9 2 5 1023.0 1022.9 0.0
18/11:00pm 5.6 4.3 3.9 89 0.7 CALM 0 0 0 0 1023.1 1023.0 0.0
18/10:30pm 4.0 1.2 1.9 86 0.8 E 6 7 3 4 1023.2 1023.1 0.0
18/10:00pm 6.3 5.0 4.1 86 0.9 CALM 0 0 0 0 1023.3 1023.2 0.0
18/09:30pm 6.1 4.4 3.9 86 0.9 ESE 2 7 1 4 1023.5 1023.4 0.0
18/09:00pm 7.5 6.3 4.6 82 1.3 CALM 0 6 0 3 1023.5 1023.4 0.0
18/08:30pm 7.8 6.6 4.4 79 1.5 CALM 0 0 0 0 1023.5 1023.4 0.0
18/08:00pm 8.7 7.3 3.7 71 2.2 CALM 0 0 0 0 1023.3 1023.2 0.0
18/07:30pm 11.3 9.6 5.8 69 2.6 SE 4 9 2 5 1023.3 1023.2 0.0
18/07:00pm 11.7 10.7 5.8 67 2.7 CALM 0 0 0 0 1023.4 1023.3 0.0
18/06:30pm 12.1 10.7 5.7 65 3.0 S 2 6 1 3 1023.2 1023.1 0.0
18/06:00pm 11.8 9.4 5.4 65 2.9 S 7 9 4 5 1022.6 1022.5 0.0
18/05:30pm 13.0 9.6 5.7 61 3.4 SW 13 17 7 9 1022.4 1022.3 0.0
18/05:00pm 15.4 12.0 4.2 47 5.2 SW 11 15 6 8 1022.3 1022.2 0.0
18/04:30pm 16.8 13.4 4.2 43 5.9 WSW 11 15 6 8 1022.3 1022.2 0.0
18/04:00pm 17.2 13.8 3.8 41 6.2 SW 11 20 6 11 1022.2 1022.1 0.0
18/03:30pm 16.9 13.8 3.6 41 6.2 SSE 9 17 5 9 1022.4 1022.3 0.0
18/03:00pm 17.4 15.7 4.0 41 6.3 ESE 2 7 1 4 1022.4 1022.3 0.0
18/02:30pm 16.6 13.5 3.7 42 6.0 SSW 9 17 5 9 1022.6 1022.5 0.0
18/02:00pm 17.1 14.2 4.4 43 6.0 SSW 9 17 5 9 1022.9 1022.8 0.0
18/01:30pm 17.7 15.4 5.0 43 6.1 SW 6 13 3 7 1023.0 1022.9 0.0
18/01:00pm 16.6 13.6 4.0 43 5.9 ENE 9 15 5 8 1023.2 1023.1 0.0
18/12:30pm 15.9 13.5 4.3 46 5.4 SE 6 11 3 6 1023.6 1023.5 0.0
18/12:00pm 15.1 11.8 4.8 50 4.8 WSW 11 19 6 10 1024.3 1024.2 0.0
18/11:30am 15.0 12.5 4.7 50 4.8 NNE 7 15 4 8 1024.8 1024.7 0.0
18/11:00am 14.2 11.7 4.5 52 4.5 E 7 11 4 6 1025.0 1024.9 0.0
18/10:30am 13.1 10.8 5.5 60 3.6 SSW 7 9 4 5 1025.4 1025.3 0.0
18/10:00am 11.4 9.4 6.1 70 2.5 WSW 6 7 3 4 1025.6 1025.5 0.0
18/09:30am 9.3 7.3 6.4 82 1.3 SSW 6 9 3 5 1025.8 1025.7 0.0
18/09:00am 7.4 5.7 5.7 89 0.8 NNW 4 7 2 4 1026.0 1025.9 0.0
18/08:30am 4.9 3.1 3.4 90 0.6 N 2 6 1 3 1026.0 1025.9 0.0
18/08:00am 2.9 1.2 1.6 91 0.5 CALM 0 7 0 4 1025.7 1025.6 0.0
18/07:30am 0.6 -1.5 -0.8 90 0.5 CALM 0 0 0 0 1025.2 1025.1 0.0
18/07:00am 0.6 -1.5 -0.8 90 0.5 CALM 0 0 0 0 1025.1 1025.0 0.0
18/06:30am 0.0 -2.2 -1.6 89 0.6 CALM 0 0 0 0 1025.1 1025.0 0.0
18/06:00am 0.6 -1.5 -1.0 89 0.6 CALM 0 0 0 0 1024.7 1024.6 0.0
18/05:30am 1.8 -0.1 0.3 90 0.6 CALM 0 0 0 0 1024.7 1024.6 0.0
18/05:00am 1.7 -0.3 0.2 90 0.5 CALM 0 0 0 0 1024.7 1024.6 0.0
18/04:30am 0.6 -1.5 -1.0 89 0.6 CALM 0 0 0 0 1024.9 1024.8 0.0
18/04:00am 1.0 -1.1 -0.6 89 0.6 CALM 0 0 0 0 1025.0 1024.9 0.0
18/03:30am 2.0 -0.3 0.4 89 0.6 N 2 7 1 4 1025.3 1025.2 0.0
18/03:00am 1.4 -1.4 -0.4 88 0.6 N 4 7 2 4 1025.3 1025.2 0.0
18/02:30am 1.3 -0.8 -0.6 87 0.7 CALM 0 4 0 2 1025.3 1025.2 0.0
18/02:00am 4.0 1.2 2.2 88 0.7 N 6 7 3 4 1025.6 1025.5 0.0
18/01:30am 2.6 -0.5 0.3 85 0.9 N 6 7 3 4 1026.0 1025.9 0.0
18/01:00am 4.2 1.5 2.6 89 0.6 N 6 7 3 4 1026.0 1025.9 0.0
18/12:30am 3.2 0.3 1.3 87 0.7 ENE 6 7 3 4 1025.8 1025.7 0.0
18/12:00am 3.7 0.8 1.6 86 0.8 E 6 6 3 3 1025.8 1025.7 0.0
 
Date/Time
WST
Temp
°C
App
Temp
°C
Dew
Point
°C
Rel
Hum
%
Delta-T
°C
Wind Press
QNH
hPa
Press
MSL
hPa
Rain since
9am
mm
Dir  Spd
km/h
Gust
km/h
Spd
kts
Gust
kts
17/11:30pm 4.9 3.2 2.1 82 1.1 CALM 0 0 0 0 1025.8 1025.7 0.0
17/11:00pm 5.1 3.4 2.1 81 1.2 CALM 0 0 0 0 1025.9 1025.8 0.0
17/10:30pm 5.5 3.9 2.3 80 1.3 CALM 0 0 0 0 1026.0 1025.9 0.0
17/10:00pm 5.3 3.6 1.8 78 1.4 CALM 0 0 0 0 1026.3 1026.2 0.0
17/09:30pm 8.7 5.8 2.7 66 2.5 E 7 11 4 6 1026.3 1026.2 0.0
17/09:00pm 8.3 6.8 3.0 69 2.2 CALM 0 0 0 0 1026.2 1026.1 0.0
17/08:30pm 9.1 7.7 3.3 67 2.5 CALM 0 0 0 0 1026.4 1026.3 0.0
17/08:00pm 8.8 6.7 1.5 60 3.0 E 2 7 1 4 1026.4 1026.3 0.0
17/07:30pm 11.3 8.0 2.3 54 3.9 ESE 9 11 5 6 1026.3 1026.2 0.0
17/07:00pm 11.4 7.3 2.2 53 3.9 SE 13 15 7 8 1026.3 1026.2 0.0
17/06:30pm 11.9 8.2 2.6 53 4.0 SSE 11 13 6 7 1026.1 1026.0 0.0
17/06:00pm 12.5 8.5 2.7 51 4.3 SE 13 17 7 9 1025.7 1025.6 0.0

Latest Capital City Observations: Canberra | Sydney | Melbourne | Brisbane | Adelaide | Perth | Hobart | Darwin

Other formats

Comma delimited format used in spreadsheet applications
http://www.bom.gov.au/fwo/IDW60901/IDW60901.94612.axf

JavaScript Object Notation format (JSON) in row-major order
http://www.bom.gov.au/fwo/IDW60901/IDW60901.94612.json

Data quality

Most of these data are generated automatically and are frequently updated. Quality checks on data are not normally performed. It is possible for incorrect values to appear. Refer to information at About Latest Weather Observations and please check the disclaimer before using these data.